sensor_id;sensor_type;location;lat;lon;timestamp;pressure;altitude;pressure_sealevel;temperature;humidity
64053;BME280;50299;49.524;8.536;2024-03-23T00:55:51;99661.41;;;7.65;65.97
64053;BME280;50299;49.524;8.536;2024-03-23T00:58:17;99654.13;;;7.60;65.15
64053;BME280;50299;49.524;8.536;2024-03-23T01:00:43;99661.09;;;7.58;65.21
64053;BME280;50299;49.524;8.536;2024-03-23T01:03:08;99649.13;;;7.54;65.11
64053;BME280;50299;49.524;8.536;2024-03-23T01:05:34;99647.34;;;7.58;66.35
64053;BME280;50299;49.524;8.536;2024-03-23T01:07:59;99635.69;;;7.61;66.24
64053;BME280;50299;49.524;8.536;2024-03-23T01:10:25;99631.63;;;7.67;65.46
64053;BME280;50299;49.524;8.536;2024-03-23T01:12:50;99630.00;;;7.66;66.66
64053;BME280;50299;49.524;8.536;2024-03-23T01:15:16;99631.28;;;7.69;67.18
64053;BME280;50299;49.524;8.536;2024-03-23T01:17:41;99629.34;;;7.69;66.55
64053;BME280;50299;49.524;8.536;2024-03-23T01:20:07;99623.78;;;7.86;65.70
64053;BME280;50299;49.524;8.536;2024-03-23T01:22:32;99625.03;;;7.98;66.50
64053;BME280;50299;49.524;8.536;2024-03-23T01:24:58;99618.78;;;7.80;66.97
64053;BME280;50299;49.524;8.536;2024-03-23T01:27:26;99614.97;;;8.02;66.08
64053;BME280;50299;49.524;8.536;2024-03-23T01:29:52;99614.47;;;8.00;66.21
64053;BME280;50299;49.524;8.536;2024-03-23T01:32:18;99610.16;;;7.90;66.27
64053;BME280;50299;49.524;8.536;2024-03-23T01:34:44;99607.06;;;7.92;66.22
64053;BME280;50299;49.524;8.536;2024-03-23T01:37:10;99606.81;;;8.05;65.17
64053;BME280;50299;49.524;8.536;2024-03-23T01:39:35;99607.19;;;8.25;65.41
64053;BME280;50299;49.524;8.536;2024-03-23T01:42:01;99595.44;;;8.16;65.56
64053;BME280;50299;49.524;8.536;2024-03-23T01:44:26;99604.44;;;8.25;65.62
64053;BME280;50299;49.524;8.536;2024-03-23T01:46:52;99607.78;;;8.39;65.66
64053;BME280;50299;49.524;8.536;2024-03-23T01:49:18;99607.13;;;8.33;65.00
64053;BME280;50299;49.524;8.536;2024-03-23T01:51:44;99605.53;;;8.53;64.93
64053;BME280;50299;49.524;8.536;2024-03-23T01:54:10;99600.13;;;8.66;64.76
64053;BME280;50299;49.524;8.536;2024-03-23T01:56:36;99596.38;;;8.70;64.08
64053;BME280;50299;49.524;8.536;2024-03-23T01:59:05;99588.22;;;8.74;64.56
64053;BME280;50299;49.524;8.536;2024-03-23T02:01:40;99590.06;;;8.70;63.98
64053;BME280;50299;49.524;8.536;2024-03-23T02:04:05;99584.88;;;8.68;63.62
64053;BME280;50299;49.524;8.536;2024-03-23T02:06:31;99585.22;;;8.67;63.94
64053;BME280;50299;49.524;8.536;2024-03-23T02:08:56;99584.19;;;8.71;63.74
64053;BME280;50299;49.524;8.536;2024-03-23T02:11:23;99580.03;;;8.65;64.27
64053;BME280;50299;49.524;8.536;2024-03-23T02:13:48;99572.09;;;8.63;63.51
64053;BME280;50299;49.524;8.536;2024-03-23T02:16:14;99563.97;;;8.67;64.35
64053;BME280;50299;49.524;8.536;2024-03-23T02:18:39;99568.81;;;8.70;64.35
64053;BME280;50299;49.524;8.536;2024-03-23T02:21:05;99577.00;;;8.79;63.83
64053;BME280;50299;49.524;8.536;2024-03-23T02:23:35;99577.56;;;8.72;63.83
64053;BME280;50299;49.524;8.536;2024-03-23T02:26:00;99578.81;;;8.75;64.11
64053;BME280;50299;49.524;8.536;2024-03-23T02:28:26;99572.41;;;8.83;64.11
64053;BME280;50299;49.524;8.536;2024-03-23T02:30:52;99565.69;;;8.93;63.23
64053;BME280;50299;49.524;8.536;2024-03-23T02:33:18;99571.44;;;9.00;63.88
64053;BME280;50299;49.524;8.536;2024-03-23T02:35:44;99567.88;;;8.99;63.61
64053;BME280;50299;49.524;8.536;2024-03-23T02:38:10;99578.25;;;9.02;63.64
64053;BME280;50299;49.524;8.536;2024-03-23T02:40:35;99566.19;;;9.07;63.80
64053;BME280;50299;49.524;8.536;2024-03-23T02:43:03;99568.28;;;9.10;64.41
64053;BME280;50299;49.524;8.536;2024-03-23T02:45:28;99568.19;;;9.19;64.21
64053;BME280;50299;49.524;8.536;2024-03-23T02:47:54;99569.91;;;9.23;63.60
64053;BME280;50299;49.524;8.536;2024-03-23T02:50:20;99570.72;;;9.24;62.71
64053;BME280;50299;49.524;8.536;2024-03-23T02:52:45;99570.16;;;9.30;62.42
64053;BME280;50299;49.524;8.536;2024-03-23T02:55:11;99566.47;;;9.26;62.76
64053;BME280;50299;49.524;8.536;2024-03-23T02:57:37;99561.75;;;9.27;62.30
64053;BME280;50299;49.524;8.536;2024-03-23T03:00:37;99562.91;;;9.26;62.39
64053;BME280;50299;49.524;8.536;2024-03-23T03:03:03;99560.28;;;9.29;62.70
64053;BME280;50299;49.524;8.536;2024-03-23T03:05:28;99558.66;;;9.28;62.77
64053;BME280;50299;49.524;8.536;2024-03-23T03:07:54;99562.56;;;9.27;62.42
64053;BME280;50299;49.524;8.536;2024-03-23T03:10:19;99562.78;;;9.22;61.74
64053;BME280;50299;49.524;8.536;2024-03-23T03:12:45;99570.72;;;9.24;61.74
64053;BME280;50299;49.524;8.536;2024-03-23T03:15:11;99569.75;;;9.07;60.83
64053;BME280;50299;49.524;8.536;2024-03-23T03:17:36;99571.44;;;9.00;60.94
64053;BME280;50299;49.524;8.536;2024-03-23T03:20:02;99563.22;;;9.12;60.38
64053;BME280;50299;49.524;8.536;2024-03-23T03:22:30;99563.47;;;9.19;59.51
64053;BME280;50299;49.524;8.536;2024-03-23T03:24:55;99548.91;;;9.31;59.77
64053;BME280;50299;49.524;8.536;2024-03-23T03:27:24;99541.44;;;9.31;58.61
64053;BME280;50299;49.524;8.536;2024-03-23T03:29:49;99537.03;;;9.18;57.78
64053;BME280;50299;49.524;8.536;2024-03-23T03:32:15;99544.38;;;9.14;57.78
64053;BME280;50299;49.524;8.536;2024-03-23T03:34:43;99542.34;;;9.23;58.11
64053;BME280;50299;49.524;8.536;2024-03-23T03:37:09;99544.06;;;9.28;58.69
64053;BME280;50299;49.524;8.536;2024-03-23T03:39:34;99542.09;;;9.28;57.15
64053;BME280;50299;49.524;8.536;2024-03-23T03:42:00;99550.59;;;9.23;56.86
64053;BME280;50299;49.524;8.536;2024-03-23T03:44:27;99555.09;;;9.28;57.28
64053;BME280;50299;49.524;8.536;2024-03-23T03:46:52;99543.72;;;9.29;56.41
64053;BME280;50299;49.524;8.536;2024-03-23T03:49:18;99551.31;;;9.45;58.46
64053;BME280;50299;49.524;8.536;2024-03-23T03:51:43;99541.44;;;9.44;56.33
64053;BME280;50299;49.524;8.536;2024-03-23T03:54:12;99544.44;;;9.51;56.98
64053;BME280;50299;49.524;8.536;2024-03-23T03:56:37;99539.38;;;9.53;56.68
64053;BME280;50299;49.524;8.536;2024-03-23T03:59:03;99539.84;;;9.55;56.11
64053;BME280;50299;49.524;8.536;2024-03-23T04:01:28;99544.22;;;9.56;55.79
64053;BME280;50299;49.524;8.536;2024-03-23T04:03:54;99539.63;;;9.60;57.28
64053;BME280;50299;49.524;8.536;2024-03-23T04:06:20;99530.06;;;9.57;56.30
64053;BME280;50299;49.524;8.536;2024-03-23T04:08:45;99533.97;;;9.56;56.08
64053;BME280;50299;49.524;8.536;2024-03-23T04:11:11;99528.09;;;9.58;56.62
64053;BME280;50299;49.524;8.536;2024-03-23T04:13:36;99518.22;;;9.57;54.98
64053;BME280;50299;49.524;8.536;2024-03-23T04:16:02;99522.69;;;9.61;57.05
64053;BME280;50299;49.524;8.536;2024-03-23T04:18:27;99513.97;;;9.59;56.82
64053;BME280;50299;49.524;8.536;2024-03-23T04:20:53;99513.63;;;9.61;56.50
64053;BME280;50299;49.524;8.536;2024-03-23T04:23:18;99520.41;;;9.63;57.58
64053;BME280;50299;49.524;8.536;2024-03-23T04:25:44;99522.38;;;9.63;56.95
64053;BME280;50299;49.524;8.536;2024-03-23T04:28:09;99524.09;;;9.68;57.56
64053;BME280;50299;49.524;8.536;2024-03-23T04:30:35;99522.81;;;9.65;56.82
64053;BME280;50299;49.524;8.536;2024-03-23T04:33:00;99524.53;;;9.70;57.42
64053;BME280;50299;49.524;8.536;2024-03-23T04:35:26;99520.97;;;9.57;55.39
64053;BME280;50299;49.524;8.536;2024-03-23T04:37:53;99523.19;;;9.63;56.74
64053;BME280;50299;49.524;8.536;2024-03-23T04:40:18;99530.84;;;9.70;56.18
64053;BME280;50299;49.524;8.536;2024-03-23T04:42:44;99530.41;;;9.68;57.19
64053;BME280;50299;49.524;8.536;2024-03-23T04:45:09;99530.53;;;9.72;56.75
64053;BME280;50299;49.524;8.536;2024-03-23T04:47:37;99528.81;;;9.67;56.26
64053;BME280;50299;49.524;8.536;2024-03-23T04:50:03;99540.78;;;9.59;56.14
64053;BME280;50299;49.524;8.536;2024-03-23T04:52:29;99546.16;;;9.43;56.41
64053;BME280;50299;49.524;8.536;2024-03-23T04:54:55;99548.91;;;9.31;56.53
64053;BME280;50299;49.524;8.536;2024-03-23T04:57:20;99545.31;;;9.18;56.57
64053;BME280;50299;49.524;8.536;2024-03-23T04:59:46;99545.88;;;9.11;57.32
64053;BME280;50299;49.524;8.536;2024-03-23T05:02:13;99547.59;;;9.16;56.86
64053;BME280;50299;49.524;8.536;2024-03-23T05:04:38;99559.78;;;9.15;56.48
64053;BME280;50299;49.524;8.536;2024-03-23T05:07:04;99546.13;;;9.19;56.56
64053;BME280;50299;49.524;8.536;2024-03-23T05:09:32;99556.66;;;9.17;56.20
64053;BME280;50299;49.524;8.536;2024-03-23T05:12:01;99553.78;;;9.01;56.73
64053;BME280;50299;49.524;8.536;2024-03-23T05:14:27;99566.16;;;8.95;56.29
64053;BME280;50299;49.524;8.536;2024-03-23T05:16:54;99571.63;;;8.82;56.93
64053;BME280;50299;49.524;8.536;2024-03-23T05:19:19;99592.72;;;8.57;58.92
64053;BME280;50299;49.524;8.536;2024-03-23T05:21:45;99634.09;;;8.49;58.92
64053;BME280;50299;49.524;8.536;2024-03-23T05:24:11;99653.56;;;8.23;57.34
64053;BME280;50299;49.524;8.536;2024-03-23T05:26:37;99654.41;;;8.06;56.19
64053;BME280;50299;49.524;8.536;2024-03-23T05:29:03;99661.72;;;7.63;58.07
64053;BME280;50299;49.524;8.536;2024-03-23T05:31:30;99667.38;;;7.67;57.56
64053;BME280;50299;49.524;8.536;2024-03-23T05:33:56;99655.53;;;7.75;55.85
64053;BME280;50299;49.524;8.536;2024-03-23T05:36:21;99649.47;;;7.35;58.64
64053;BME280;50299;49.524;8.536;2024-03-23T05:38:47;99651.38;;;7.69;56.09
64053;BME280;50299;49.524;8.536;2024-03-23T05:41:13;99659.22;;;7.24;58.59
64053;BME280;50299;49.524;8.536;2024-03-23T05:43:39;99667.47;;;7.24;57.74
64053;BME280;50299;49.524;8.536;2024-03-23T05:46:04;99676.50;;;7.24;56.58
64053;BME280;50299;49.524;8.536;2024-03-23T05:48:34;99682.00;;;6.89;59.90
64053;BME280;50299;49.524;8.536;2024-03-23T05:51:00;99708.16;;;6.78;59.00
64053;BME280;50299;49.524;8.536;2024-03-23T05:53:25;99711.75;;;6.70;59.27
64053;BME280;50299;49.524;8.536;2024-03-23T05:55:51;99715.06;;;6.41;59.11
64053;BME280;50299;49.524;8.536;2024-03-23T05:58:25;99730.22;;;6.30;59.30
64053;BME280;50299;49.524;8.536;2024-03-23T06:00:57;99743.63;;;6.40;58.69
64053;BME280;50299;49.524;8.536;2024-03-23T06:03:22;99750.13;;;6.53;59.19
64053;BME280;50299;49.524;8.536;2024-03-23T06:05:48;99766.59;;;6.53;58.48
64053;BME280;50299;49.524;8.536;2024-03-23T06:08:16;99775.03;;;6.65;57.41
64053;BME280;50299;49.524;8.536;2024-03-23T06:10:42;99761.78;;;6.50;58.29
64053;BME280;50299;49.524;8.536;2024-03-23T06:13:07;99766.44;;;6.49;58.81
64053;BME280;50299;49.524;8.536;2024-03-23T06:15:33;99761.97;;;6.62;57.37
64053;BME280;50299;49.524;8.536;2024-03-23T06:18:03;99779.44;;;6.66;58.96
64053;BME280;50299;49.524;8.536;2024-03-23T06:20:30;99781.22;;;6.71;58.81
64053;BME280;50299;49.524;8.536;2024-03-23T06:22:55;99808.03;;;6.74;59.28
64053;BME280;50299;49.524;8.536;2024-03-23T06:25:21;99810.31;;;6.80;58.89
64053;BME280;50299;49.524;8.536;2024-03-23T06:27:46;99813.09;;;6.89;57.86
64053;BME280;50299;49.524;8.536;2024-03-23T06:30:12;99810.16;;;6.85;57.80
64053;BME280;50299;49.524;8.536;2024-03-23T06:32:38;99805.19;;;6.87;58.37
64053;BME280;50299;49.524;8.536;2024-03-23T06:35:04;99792.44;;;7.09;56.57
64053;BME280;50299;49.524;8.536;2024-03-23T06:37:36;99798.56;;;6.97;58.26
64053;BME280;50299;49.524;8.536;2024-03-23T06:40:04;99799.19;;;6.94;55.55
64053;BME280;50299;49.524;8.536;2024-03-23T06:42:34;99797.56;;;6.93;56.75
64053;BME280;50299;49.524;8.536;2024-03-23T06:44:59;99788.53;;;6.93;56.62
64053;BME280;50299;49.524;8.536;2024-03-23T06:47:25;99793.84;;;6.89;56.79
64053;BME280;50299;49.524;8.536;2024-03-23T06:49:51;99810.06;;;6.99;55.64
64053;BME280;50299;49.524;8.536;2024-03-23T06:52:16;99825.22;;;6.88;56.89
64053;BME280;50299;49.524;8.536;2024-03-23T06:54:42;99829.72;;;6.84;55.95
64053;BME280;50299;49.524;8.536;2024-03-23T06:57:07;99838.75;;;6.76;57.40
64053;BME280;50299;49.524;8.536;2024-03-23T06:59:33;99843.75;;;6.74;56.90
64053;BME280;50299;49.524;8.536;2024-03-23T07:01:58;99859.22;;;6.70;56.81
64053;BME280;50299;49.524;8.536;2024-03-23T07:04:24;99853.41;;;6.62;56.36
64053;BME280;50299;49.524;8.536;2024-03-23T07:06:49;99857.47;;;6.74;57.03
64053;BME280;50299;49.524;8.536;2024-03-23T07:09:15;99872.28;;;6.95;56.88
64053;BME280;50299;49.524;8.536;2024-03-23T07:11:41;99871.59;;;6.89;55.69
64053;BME280;50299;49.524;8.536;2024-03-23T07:14:06;99881.44;;;6.90;54.62
64053;BME280;50299;49.524;8.536;2024-03-23T07:16:32;99898.38;;;6.75;55.33
64053;BME280;50299;49.524;8.536;2024-03-23T07:18:58;99903.09;;;6.52;55.34
64053;BME280;50299;49.524;8.536;2024-03-23T07:21:24;99909.22;;;6.49;54.61
64053;BME280;50299;49.524;8.536;2024-03-23T07:23:49;99923.88;;;6.45;53.88
64053;BME280;50299;49.524;8.536;2024-03-23T07:26:15;99928.19;;;6.37;54.11
64053;BME280;50299;49.524;8.536;2024-03-23T07:28:40;99933.25;;;6.66;53.98
64053;BME280;50299;49.524;8.536;2024-03-23T07:31:13;99944.66;;;6.90;53.95
64053;BME280;50299;49.524;8.536;2024-03-23T07:33:45;99953.66;;;7.22;50.61
64053;BME280;50299;49.524;8.536;2024-03-23T07:36:11;99972.75;;;7.27;52.96
64053;BME280;50299;49.524;8.536;2024-03-23T07:38:36;99977.16;;;7.28;53.12
64053;BME280;50299;49.524;8.536;2024-03-23T07:41:06;99968.13;;;7.36;52.91
64053;BME280;50299;49.524;8.536;2024-03-23T07:43:32;99979.63;;;7.47;52.09
64053;BME280;50299;49.524;8.536;2024-03-23T07:45:59;99987.31;;;7.76;50.61
64053;BME280;50299;49.524;8.536;2024-03-23T07:48:24;99985.84;;;7.61;51.28
64053;BME280;50299;49.524;8.536;2024-03-23T07:53:26;100017.91;;;7.66;53.09
64053;BME280;50299;49.524;8.536;2024-03-23T07:56:12;100015.16;;;7.75;50.52
64053;BME280;50299;49.524;8.536;2024-03-23T07:58:40;100018.69;;;7.67;52.16
64053;BME280;50299;49.524;8.536;2024-03-23T08:01:13;100038.06;;;8.27;51.22
64053;BME280;50299;49.524;8.536;2024-03-23T08:03:44;100042.44;;;8.80;49.31
64053;BME280;50299;49.524;8.536;2024-03-23T08:06:15;100043.03;;;9.42;51.41
64053;BME280;50299;49.524;8.536;2024-03-23T08:08:42;100054.72;;;10.48;46.12
64053;BME280;50299;49.524;8.536;2024-03-23T08:11:07;100050.06;;;11.15;45.02
64053;BME280;50299;49.524;8.536;2024-03-23T08:13:34;100062.03;;;11.07;43.47
64053;BME280;50299;49.524;8.536;2024-03-23T08:16:01;100066.66;;;11.15;46.57
64053;BME280;50299;49.524;8.536;2024-03-23T08:18:27;100064.38;;;11.42;44.90
64053;BME280;50299;49.524;8.536;2024-03-23T08:20:57;100074.16;;;11.72;42.63
64053;BME280;50299;49.524;8.536;2024-03-23T08:23:30;100070.78;;;11.91;42.62
64053;BME280;50299;49.524;8.536;2024-03-23T08:26:06;100073.09;;;12.42;42.29
64053;BME280;50299;49.524;8.536;2024-03-23T08:28:32;100068.81;;;13.13;41.35
64053;BME280;50299;49.524;8.536;2024-03-23T08:31:01;100083.69;;;13.36;38.89
64053;BME280;50299;49.524;8.536;2024-03-23T08:33:28;100081.84;;;13.88;38.19
64053;BME280;50299;49.524;8.536;2024-03-23T08:35:55;100080.38;;;14.45;40.07
64053;BME280;50299;49.524;8.536;2024-03-23T08:38:21;100085.78;;;15.38;40.56
64053;BME280;50299;49.524;8.536;2024-03-23T08:40:47;100075.34;;;16.31;42.84
64053;BME280;50299;49.524;8.536;2024-03-23T08:43:13;100077.50;;;16.71;38.70
64053;BME280;50299;49.524;8.536;2024-03-23T08:45:38;100062.22;;;16.95;36.89
64053;BME280;50299;49.524;8.536;2024-03-23T08:48:04;100081.72;;;17.29;31.56
64053;BME280;50299;49.524;8.536;2024-03-23T08:50:30;100078.09;;;16.87;32.83
64053;BME280;50299;49.524;8.536;2024-03-23T08:52:55;100079.56;;;16.77;30.73
64053;BME280;50299;49.524;8.536;2024-03-23T08:55:21;100081.78;;;16.35;35.59
64053;BME280;50299;49.524;8.536;2024-03-23T08:57:46;100106.00;;;16.04;32.38
64053;BME280;50299;49.524;8.536;2024-03-23T09:00:15;100105.78;;;15.67;35.04
64053;BME280;50299;49.524;8.536;2024-03-23T09:02:41;100111.72;;;15.19;35.07
64053;BME280;50299;49.524;8.536;2024-03-23T09:05:06;100108.41;;;15.56;34.62
64053;BME280;50299;49.524;8.536;2024-03-23T09:07:32;100109.63;;;15.82;35.30
64053;BME280;50299;49.524;8.536;2024-03-23T09:09:57;100108.13;;;15.88;35.49
64053;BME280;50299;49.524;8.536;2024-03-23T09:12:23;100113.72;;;15.42;34.28
64053;BME280;50299;49.524;8.536;2024-03-23T09:14:50;100108.75;;;15.12;38.38
64053;BME280;50299;49.524;8.536;2024-03-23T09:17:15;100105.41;;;14.84;37.38
64053;BME280;50299;49.524;8.536;2024-03-23T09:19:41;100117.41;;;14.49;36.98
64053;BME280;50299;49.524;8.536;2024-03-23T09:22:07;100111.56;;;14.03;36.60
64053;BME280;50299;49.524;8.536;2024-03-23T09:24:32;100115.44;;;13.67;40.88
64053;BME280;50299;49.524;8.536;2024-03-23T09:26:58;100114.34;;;13.12;36.85
64053;BME280;50299;49.524;8.536;2024-03-23T09:29:23;100103.72;;;12.86;40.74
64053;BME280;50299;49.524;8.536;2024-03-23T09:31:49;100104.47;;;12.70;39.55
64053;BME280;50299;49.524;8.536;2024-03-23T09:34:14;100108.88;;;12.59;40.98
64053;BME280;50299;49.524;8.536;2024-03-23T09:36:40;100111.56;;;12.55;42.08
64053;BME280;50299;49.524;8.536;2024-03-23T09:39:07;100113.28;;;12.48;42.12
64053;BME280;50299;49.524;8.536;2024-03-23T09:41:35;100109.53;;;12.28;40.20
64053;BME280;50299;49.524;8.536;2024-03-23T09:44:01;100109.41;;;12.12;39.76
64053;BME280;50299;49.524;8.536;2024-03-23T09:46:27;100107.03;;;11.98;42.15
64053;BME280;50299;49.524;8.536;2024-03-23T09:48:55;100109.91;;;11.90;41.38
64053;BME280;50299;49.524;8.536;2024-03-23T09:51:21;100111.03;;;11.64;41.01
64053;BME280;50299;49.524;8.536;2024-03-23T09:53:49;100110.75;;;11.45;44.35
64053;BME280;50299;49.524;8.536;2024-03-23T09:56:18;100109.22;;;11.35;46.79
64053;BME280;50299;49.524;8.536;2024-03-23T09:58:44;100108.50;;;11.26;43.72
64053;BME280;50299;49.524;8.536;2024-03-23T10:01:09;100105.97;;;11.21;43.38
64053;BME280;50299;49.524;8.536;2024-03-23T10:03:43;100102.59;;;11.03;38.99
64053;BME280;50299;49.524;8.536;2024-03-23T10:06:09;100101.59;;;10.87;41.87
64053;BME280;50299;49.524;8.536;2024-03-23T10:08:34;100093.38;;;10.78;40.49
64053;BME280;50299;49.524;8.536;2024-03-23T10:11:14;100089.53;;;10.91;44.01
64053;BME280;50299;49.524;8.536;2024-03-23T10:13:44;100087.50;;;11.13;44.57
64053;BME280;50299;49.524;8.536;2024-03-23T10:16:12;100086.59;;;11.21;41.20
64053;BME280;50299;49.524;8.536;2024-03-23T10:18:39;100090.53;;;11.20;39.66
64053;BME280;50299;49.524;8.536;2024-03-23T10:21:09;100085.28;;;11.06;40.47
64053;BME280;50299;49.524;8.536;2024-03-23T10:23:40;100090.28;;;11.13;40.83
64053;BME280;50299;49.524;8.536;2024-03-23T10:26:23;100088.69;;;11.24;38.86
64053;BME280;50299;49.524;8.536;2024-03-23T10:29:00;100098.16;;;11.35;38.38
64053;BME280;50299;49.524;8.536;2024-03-23T10:31:27;100092.53;;;11.31;37.19
64053;BME280;50299;49.524;8.536;2024-03-23T10:33:53;100094.00;;;11.29;36.00
64053;BME280;50299;49.524;8.536;2024-03-23T10:36:24;100092.31;;;11.03;38.24
64053;BME280;50299;49.524;8.536;2024-03-23T10:38:54;100096.41;;;10.85;38.99
64053;BME280;50299;49.524;8.536;2024-03-23T10:41:19;100095.44;;;10.60;41.26
64053;BME280;50299;49.524;8.536;2024-03-23T10:43:47;100098.22;;;10.39;38.60
64053;BME280;50299;49.524;8.536;2024-03-23T10:46:12;100099.94;;;10.23;38.91
64053;BME280;50299;49.524;8.536;2024-03-23T10:48:38;100095.72;;;10.25;34.22
64053;BME280;50299;49.524;8.536;2024-03-23T10:51:06;100095.06;;;9.99;38.53
64053;BME280;50299;49.524;8.536;2024-03-23T10:53:33;100091.25;;;9.82;38.79
64053;BME280;50299;49.524;8.536;2024-03-23T10:55:59;100094.94;;;9.95;39.03
64053;BME280;50299;49.524;8.536;2024-03-23T10:58:36;100094.25;;;10.49;38.15
64053;BME280;50299;49.524;8.536;2024-03-23T11:01:03;100086.19;;;10.98;38.50
64053;BME280;50299;49.524;8.536;2024-03-23T11:03:37;100087.63;;;11.16;39.99
64053;BME280;50299;49.524;8.536;2024-03-23T11:06:04;100097.53;;;11.17;36.40
64053;BME280;50299;49.524;8.536;2024-03-23T11:08:34;100089.28;;;11.42;38.91
64053;BME280;50299;49.524;8.536;2024-03-23T11:11:20;100087.13;;;11.59;38.69
64053;BME280;50299;49.524;8.536;2024-03-23T11:13:50;100087.03;;;11.68;34.60
64053;BME280;50299;49.524;8.536;2024-03-23T11:16:21;100082.19;;;11.65;37.00
64053;BME280;50299;49.524;8.536;2024-03-23T11:18:47;100086.34;;;11.71;35.11
64053;BME280;50299;49.524;8.536;2024-03-23T11:24:16;100080.03;;;11.25;35.29
64053;BME280;50299;49.524;8.536;2024-03-23T11:26:42;100079.47;;;11.20;36.48
64053;BME280;50299;49.524;8.536;2024-03-23T11:29:11;100070.72;;;11.30;34.11
64053;BME280;50299;49.524;8.536;2024-03-23T11:31:47;100086.63;;;10.67;33.60
64053;BME280;50299;49.524;8.536;2024-03-23T11:34:13;100092.31;;;10.20;36.10
64053;BME280;50299;49.524;8.536;2024-03-23T11:36:40;100090.09;;;9.92;38.53
64053;BME280;50299;49.524;8.536;2024-03-23T11:39:16;100104.03;;;9.96;37.71
64053;BME280;50299;49.524;8.536;2024-03-23T11:41:56;100115.81;;;9.11;40.36
64053;BME280;50299;49.524;8.536;2024-03-23T11:44:24;100128.66;;;8.63;42.36
64053;BME280;50299;49.524;8.536;2024-03-23T11:46:50;100142.81;;;8.13;43.75
64053;BME280;50299;49.524;8.536;2024-03-23T11:49:28;100148.59;;;7.95;44.71
64053;BME280;50299;49.524;8.536;2024-03-23T11:51:55;100165.28;;;7.58;47.54
64053;BME280;50299;49.524;8.536;2024-03-23T11:54:24;100175.47;;;7.35;49.90
64053;BME280;50299;49.524;8.536;2024-03-23T11:57:08;100166.09;;;7.14;54.33
64053;BME280;50299;49.524;8.536;2024-03-23T11:59:39;100148.63;;;6.87;57.82
64053;BME280;50299;49.524;8.536;2024-03-23T12:02:12;100128.50;;;6.78;53.51
64053;BME280;50299;49.524;8.536;2024-03-23T12:04:41;100128.50;;;6.78;57.19
64053;BME280;50299;49.524;8.536;2024-03-23T12:07:15;100121.06;;;7.01;56.35
64053;BME280;50299;49.524;8.536;2024-03-23T12:09:45;100107.63;;;7.22;58.45
64053;BME280;50299;49.524;8.536;2024-03-23T12:12:16;100105.09;;;7.57;60.28
64053;BME280;50299;49.524;8.536;2024-03-23T12:14:43;100096.78;;;7.97;57.47
64053;BME280;50299;49.524;8.536;2024-03-23T12:17:21;100102.03;;;8.33;55.35
64053;BME280;50299;49.524;8.536;2024-03-23T12:19:47;100092.34;;;8.53;53.73
64053;BME280;50299;49.524;8.536;2024-03-23T12:22:12;100091.53;;;8.78;54.47
64053;BME280;50299;49.524;8.536;2024-03-23T12:24:38;100083.91;;;8.49;50.44
64053;BME280;50299;49.524;8.536;2024-03-23T12:27:10;100097.22;;;8.56;48.66
64053;BME280;50299;49.524;8.536;2024-03-23T12:29:35;100085.69;;;8.54;51.93
64053;BME280;50299;49.524;8.536;2024-03-23T12:32:02;100089.59;;;8.70;53.52
64053;BME280;50299;49.524;8.536;2024-03-23T12:34:28;100087.66;;;8.79;51.92
64053;BME280;50299;49.524;8.536;2024-03-23T12:36:55;100086.97;;;8.30;51.46
64053;BME280;50299;49.524;8.536;2024-03-23T12:39:21;100104.72;;;7.89;54.67
64053;BME280;50299;49.524;8.536;2024-03-23T12:41:47;100095.13;;;7.47;54.40
64053;BME280;50299;49.524;8.536;2024-03-23T12:44:13;100096.22;;;7.37;55.22
64053;BME280;50299;49.524;8.536;2024-03-23T12:46:39;100096.47;;;7.50;55.87
64053;BME280;50299;49.524;8.536;2024-03-23T12:49:04;100098.81;;;7.65;57.98
64053;BME280;50299;49.524;8.536;2024-03-23T12:51:31;100096.91;;;7.83;58.02
64053;BME280;50299;49.524;8.536;2024-03-23T12:53:57;100082.44;;;7.60;53.28
64053;BME280;50299;49.524;8.536;2024-03-23T12:56:22;100100.91;;;7.37;53.40
64053;BME280;50299;49.524;8.536;2024-03-23T12:58:48;100096.66;;;7.31;52.83
64053;BME280;50299;49.524;8.536;2024-03-23T13:01:19;100119.13;;;7.02;51.05
64053;BME280;50299;49.524;8.536;2024-03-23T13:03:48;100116.16;;;6.67;53.44
64053;BME280;50299;49.524;8.536;2024-03-23T13:06:14;100124.13;;;6.41;51.88
64053;BME280;50299;49.524;8.536;2024-03-23T13:08:40;100113.28;;;6.22;53.05
64053;BME280;50299;49.524;8.536;2024-03-23T13:11:10;100113.91;;;5.91;54.80
64053;BME280;50299;49.524;8.536;2024-03-23T13:13:36;100102.53;;;5.71;53.61
64053;BME280;50299;49.524;8.536;2024-03-23T13:16:02;100104.69;;;5.74;55.35
64053;BME280;50299;49.524;8.536;2024-03-23T13:18:31;100103.97;;;5.40;56.94
64053;BME280;50299;49.524;8.536;2024-03-23T13:20:57;100094.00;;;5.45;57.36
64053;BME280;50299;49.524;8.536;2024-03-23T13:23:23;100096.56;;;5.96;58.03
64053;BME280;50299;49.524;8.536;2024-03-23T13:25:53;100085.69;;;6.05;59.17
64053;BME280;50299;49.524;8.536;2024-03-23T13:28:22;100089.53;;;6.54;57.60
64053;BME280;50299;49.524;8.536;2024-03-23T13:30:51;100084.25;;;7.11;57.06
64053;BME280;50299;49.524;8.536;2024-03-23T13:33:17;100088.97;;;7.42;52.69
64053;BME280;50299;49.524;8.536;2024-03-23T13:35:53;100103.19;;;7.66;53.62
64053;BME280;50299;49.524;8.536;2024-03-23T13:38:19;100096.59;;;7.84;50.81
64053;BME280;50299;49.524;8.536;2024-03-23T13:41:03;100097.59;;;7.97;50.16
64053;BME280;50299;49.524;8.536;2024-03-23T13:43:30;100099.03;;;7.86;49.76
64053;BME280;50299;49.524;8.536;2024-03-23T13:45:57;100101.72;;;7.69;50.11
64053;BME280;50299;49.524;8.536;2024-03-23T13:48:27;100100.81;;;7.82;51.92
64053;BME280;50299;49.524;8.536;2024-03-23T13:50:59;100094.16;;;7.74;51.41
64053;BME280;50299;49.524;8.536;2024-03-23T13:53:25;100099.13;;;7.63;52.10
64053;BME280;50299;49.524;8.536;2024-03-23T13:55:51;100088.06;;;7.55;51.41
64053;BME280;50299;49.524;8.536;2024-03-23T13:58:17;100086.53;;;7.71;51.80
64053;BME280;50299;49.524;8.536;2024-03-23T14:00:42;100077.69;;;7.92;52.79
64053;BME280;50299;49.524;8.536;2024-03-23T14:03:12;100063.44;;;7.89;53.39